Weather History for Chariton, IA

Change the Weather History Date:

Friday, January 4, 2013

  Actual Average Record
Temperature  
Mean Temperature 28 °F -  
Max Temperature 42 °F 31 °F 57 °F (1997)
Min Temperature 15 °F 10 °F -19 °F (1959)
Degree Days  
Heating Degree Days 36    
Moisture  
Dew Point 19 °F    
Average Humidity 67    
Maximum Humidity 86    
Minimum Humidity 42    
Precipitation  
Precipitation 0.00 in - - ()
Sea Level Pressure  
Sea Level Pressure 30.25 in    
Wind  
Wind Speed 9 mph (SW)    
Max Wind Speed 17 mph    
Max Gust Speed 22 mph    
Visibility 10 miles    
Events      
Averages and records for this station are not official NWS values.
T = Trace of Precipitation, MM = Missing Value Source: NWS Daily Summary

Daily Weather History Graph

Daily Weather History Graph

Search for Another Location

Airport:

Trip Planner

Search our weather history database for the weather conditions in past years. The results will help you decide how hot, cold, wet, or windy it might be!

Date:

Astronomy

Jan. 04, 2013 Rise Set
Actual Time 7:38 AM CST 4:58 PM CST
Civil Twilight 7:07 AM CST 5:29 PM CST
Nautical Twilight 6:33 AM CST 6:04 PM CST
Astronomical Twilight 6:00 AM CST 6:37 PM CST
Moon No Moon Rise 11:17 AM CST (1/4)
Length of Visible Light 10h 21m
Length of Day
9h 20m
Waning Gibbous, 55% of the Moon is Illuminated
Jan 4
Waning Gibbous
Jan 4
Last Quarter
Jan 11
New
Jan 18
First Quarter
Jan 26
Full

Hourly Weather History & Observations

Time (CST) Temp. Windchill Dew Point Humidity Pressure Visibility Wind Dir Wind Speed Gust Speed Precip Events Conditions
12:15 AM 15.8 °F 7.2 °F 10.4 °F 79% 30.34 in 10.0 mi SW 5.8 mph - N/A   Clear
12:35 AM 15.8 °F 6.1 °F 10.4 °F 79% 30.33 in 10.0 mi SW 6.9 mph - N/A   Clear
12:55 AM 15.8 °F 7.2 °F 10.4 °F 79% 30.32 in 10.0 mi SSW 5.8 mph - N/A   Clear
1:15 AM 15.8 °F 5.1 °F 10.4 °F 79% 30.31 in 10.0 mi SW 8.1 mph - N/A   Clear
1:35 AM 17.6 °F 5.7 °F 10.4 °F 73% 30.30 in 10.0 mi SW 10.4 mph - N/A   Clear
1:55 AM 17.6 °F 5.7 °F 12.2 °F 79% 30.30 in 10.0 mi SW 10.4 mph - N/A   Clear
2:15 AM 17.6 °F 5.7 °F 12.2 °F 79% 30.30 in 10.0 mi SW 10.4 mph - N/A   Clear
2:35 AM 17.6 °F 6.4 °F 12.2 °F 79% 30.31 in 10.0 mi SW 9.2 mph - N/A   Clear
2:55 AM 17.6 °F 7.3 °F 12.2 °F 79% 30.31 in 10.0 mi SW 8.1 mph - N/A   Clear
3:15 AM 17.6 °F 6.4 °F 12.2 °F 79% 30.31 in 10.0 mi SW 9.2 mph - N/A   Clear
5:55 AM 19.4 °F 10.4 °F 14.0 °F 80% 30.29 in 10.0 mi SW 6.9 mph - N/A   Clear
5:58 AM 19.4 °F 10.4 °F 14.0 °F 80% 30.29 in 10.0 mi SW 6.9 mph - N/A   Clear
6:15 AM 19.4 °F 10.4 °F 14.0 °F 80% 30.29 in 10.0 mi SW 6.9 mph - N/A   Clear
6:35 AM 19.4 °F 8.6 °F 14.0 °F 80% 30.27 in 10.0 mi SW 9.2 mph - N/A   Clear
7:15 AM 19.4 °F 7.9 °F 15.8 °F 86% 30.27 in 10.0 mi SW 10.4 mph - N/A   Clear
7:35 AM 19.4 °F 9.5 °F 15.8 °F 86% 30.27 in 10.0 mi SW 8.1 mph - N/A   Clear
7:55 AM 19.4 °F 9.5 °F 15.8 °F 86% 30.28 in 10.0 mi SW 8.1 mph - N/A   Clear
8:15 AM 21.2 °F 11.7 °F 15.8 °F 80% 30.27 in 10.0 mi SW 8.1 mph - N/A   Clear
8:35 AM 21.2 °F 11.7 °F 17.6 °F 86% 30.28 in 10.0 mi SW 8.1 mph - N/A   Clear
8:55 AM 24.8 °F 15.3 °F 17.6 °F 74% 30.28 in 10.0 mi SW 9.2 mph - N/A   Clear
9:15 AM 24.8 °F 13.4 °F 19.4 °F 80% 30.27 in 10.0 mi SW 12.7 mph 17.3 mph N/A   Clear
9:35 AM 26.6 °F 16.2 °F 19.4 °F 74% 30.28 in 10.0 mi SW 11.5 mph 17.3 mph N/A   Clear
9:55 AM 28.4 °F 19.1 °F 21.2 °F 74% 30.28 in 10.0 mi SW 10.4 mph 18.4 mph N/A   Clear
10:15 AM 30.2 °F 20.2 °F 21.2 °F 69% 30.29 in 10.0 mi WSW 12.7 mph 18.4 mph N/A   Clear
10:35 AM 32.0 °F 23.6 °F 23.0 °F 69% 30.28 in 10.0 mi SW 10.4 mph - N/A   Clear
10:55 AM 33.8 °F 23.5 °F 23.0 °F 65% 30.28 in 10.0 mi SW 16.1 mph 21.9 mph N/A   Clear
11:15 AM 35.6 °F 27.1 °F 23.0 °F 60% 30.27 in 10.0 mi SW 12.7 mph 19.6 mph N/A   Clear
11:35 AM 37.4 °F 28.2 °F 23.0 °F 56% 30.26 in 10.0 mi SW 16.1 mph 21.9 mph N/A   Clear
11:55 AM 37.4 °F 28.5 °F 23.0 °F 56% 30.26 in 10.0 mi WSW 15.0 mph 20.7 mph N/A   Clear
12:15 PM 37.4 °F 27.8 °F 23.0 °F 56% 30.25 in 10.0 mi WSW 17.3 mph - N/A   Clear
12:35 PM 39.2 °F 30.8 °F 23.0 °F 52% 30.24 in 10.0 mi SW 15.0 mph 19.6 mph N/A   Clear
12:55 PM 39.2 °F 31.2 °F 23.0 °F 52% 30.24 in 10.0 mi WSW 13.8 mph 19.6 mph N/A   Clear
1:15 PM 39.2 °F 31.6 °F 23.0 °F 52% 30.23 in 10.0 mi SW 12.7 mph 18.4 mph N/A   Clear
1:35 PM 41.0 °F 35.2 °F 23.0 °F 49% 30.22 in 10.0 mi SW 9.2 mph - N/A   Clear
1:55 PM 42.8 °F 36.6 °F 21.2 °F 42% 30.22 in 10.0 mi WSW 11.5 mph - N/A   Clear
2:15 PM 42.8 °F 36.2 °F 21.2 °F 42% 30.22 in 10.0 mi WSW 12.7 mph 16.1 mph N/A   Clear
2:35 PM 42.8 °F 36.2 °F 21.2 °F 42% 30.22 in 10.0 mi SW 12.7 mph 17.3 mph N/A   Clear
2:55 PM 42.8 °F 37.5 °F 21.2 °F 42% 30.22 in 10.0 mi SW 9.2 mph 12.7 mph N/A   Clear
3:15 PM 42.8 °F 35.4 °F 21.2 °F 42% 30.22 in 10.0 mi SW 15.0 mph - N/A   Clear
3:35 PM 42.8 °F 36.6 °F 21.2 °F 42% 30.22 in 10.0 mi WSW 11.5 mph 17.3 mph N/A   Clear
3:55 PM 41.0 °F 34.7 °F 21.2 °F 45% 30.22 in 10.0 mi SW 10.4 mph - N/A   Clear
4:15 PM 41.0 °F 36.4 °F 21.2 °F 45% 30.23 in 10.0 mi SW 6.9 mph - N/A   Clear
4:35 PM 39.2 °F 34.2 °F 21.2 °F 49% 30.22 in 10.0 mi SW 6.9 mph - N/A   Clear
4:55 PM 37.4 °F 31.4 °F 21.2 °F 52% 30.23 in 10.0 mi SSW 8.1 mph - N/A   Clear
5:15 PM 35.6 °F 29.9 °F 21.2 °F 56% 30.23 in 10.0 mi SSW 6.9 mph - N/A   Clear
5:35 PM 35.6 °F 29.9 °F 21.2 °F 56% 30.23 in 10.0 mi SSW 6.9 mph - N/A   Clear
5:55 PM 35.6 °F 29.9 °F 21.2 °F 56% 30.24 in 10.0 mi SW 6.9 mph - N/A   Clear
6:15 PM 35.6 °F 29.2 °F 21.2 °F 56% 30.24 in 10.0 mi SW 8.1 mph - N/A   Clear
6:35 PM 35.6 °F 29.9 °F 21.2 °F 56% 30.23 in 10.0 mi SW 6.9 mph - N/A   Clear
6:55 PM 35.6 °F 29.9 °F 23.0 °F 60% 30.23 in 10.0 mi SW 6.9 mph - N/A   Clear
7:15 PM 33.8 °F 27.7 °F 21.2 °F 60% 30.22 in 10.0 mi SW 6.9 mph - N/A   Clear
7:35 PM 32.0 °F 24.8 °F 21.2 °F 64% 30.23 in 10.0 mi SSW 8.1 mph - N/A   Clear
7:55 PM 30.2 °F 23.4 °F 21.2 °F 69% 30.23 in 10.0 mi SSW 6.9 mph - N/A   Clear
8:15 PM 30.2 °F 21.9 °F 21.2 °F 69% 30.23 in 10.0 mi SSW 9.2 mph - N/A   Clear
8:35 PM 28.4 °F 20.4 °F 21.2 °F 74% 30.22 in 10.0 mi SSW 8.1 mph - N/A   Clear
8:55 PM 30.2 °F 22.6 °F 23.0 °F 75% 30.22 in 10.0 mi SSW 8.1 mph - N/A   Clear
9:15 PM 30.2 °F 22.6 °F 21.2 °F 69% 30.21 in 10.0 mi SSW 8.1 mph - N/A   Clear
9:35 PM 28.4 °F 20.4 °F 21.2 °F 74% 30.22 in 10.0 mi SSW 8.1 mph - N/A   Clear
9:55 PM 28.4 °F 21.2 °F 21.2 °F 74% 30.21 in 10.0 mi SSW 6.9 mph - N/A   Clear
10:15 PM 28.4 °F 22.2 °F 21.2 °F 74% 30.21 in 10.0 mi SSW 5.8 mph - N/A   Clear
10:35 PM 28.4 °F 20.4 °F 21.2 °F 74% 30.21 in 10.0 mi SSW 8.1 mph - N/A   Clear
10:55 PM 28.4 °F 20.4 °F 21.2 °F 74% 30.21 in 10.0 mi SSW 8.1 mph - N/A   Clear
11:15 PM 28.4 °F 21.2 °F 21.2 °F 74% 30.21 in 10.0 mi SSW 6.9 mph - N/A   Clear
11:35 PM 28.4 °F 24.6 °F 21.2 °F 74% 30.20 in 10.0 mi SSW 3.5 mph - N/A   Clear
11:55 PM 26.6 °F 19.1 °F 21.2 °F 80% 30.20 in 10.0 mi SSW 6.9 mph - N/A   Clear